Time;durP1;ratioP1;P1;durP2;ratioP2;P2;SDS_P1;SDS_P2;PMS_P1;PMS_P2;Temp;Humidity;BMP_temperature;BMP_pressure;BME280_temperature;BME280_humidity;BME280_pressure;Samples;Min_cycle;Max_cycle;Signal;HPM_P1;HPM_P2
2022/01/13 00:01:43;;;;;;;134.27;24.33;;;;;;;3.55;100.00;103997.94;5092171;28;20040;-52
2022/01/13 00:04:11;;;;;;;133.18;22.45;;;;;;;3.38;100.00;103978.94;5092005;28;20039;-51
2022/01/13 00:06:36;;;;;;;109.55;21.70;;;;;;;3.46;100.00;104004.44;5092321;28;20067;-50
2022/01/13 00:09:03;;;;;;;111.97;21.98;;;;;;;3.29;100.00;103962.00;5092293;28;20076;-55
2022/01/13 00:11:29;;;;;;;158.07;24.75;;;;;;;2.98;100.00;103910.19;5074196;28;20028;-50
2022/01/13 00:14:21;;;;;;;134.35;23.48;;;;;;;3.37;100.00;103984.97;5092344;28;20372;-51
2022/01/13 00:17:06;;;;;;;86.65;18.15;;;;;;;3.32;100.00;103983.88;5091775;28;20123;-50
2022/01/13 00:19:46;;;;;;;96.63;17.42;;;;;;;3.41;100.00;103986.00;5091938;28;20040;-49
2022/01/13 00:24:43;;;;;;;78.13;16.45;;;;;;;3.40;100.00;103990.31;5092060;28;20032;-51
2022/01/13 00:27:12;;;;;;;132.98;18.50;;;;;;;2.81;100.00;103890.28;5074152;28;20032;-50
2022/01/13 00:29:43;;;;;;;65.40;15.70;;;;;;;2.91;100.00;103908.13;5074618;28;20170;-50
2022/01/13 00:32:10;;;;;;;102.95;19.05;;;;;;;3.37;100.00;104002.28;5092060;28;20025;-50
2022/01/13 00:34:36;;;;;;;92.63;17.02;;;;;;;3.37;100.00;103997.09;5074223;28;20035;-49
2022/01/13 00:37:01;;;;;;;94.80;18.13;;;;;;;2.94;100.00;103923.00;5091833;28;20036;-48
2022/01/13 00:39:27;;;;;;;128.18;21.05;;;;;;;3.30;100.00;103987.19;5073705;28;20039;-51
2022/01/13 00:41:52;;;;;;;115.68;20.02;;;;;;;2.92;100.00;103917.72;5092142;28;20096;-53
2022/01/13 00:44:20;;;;;;;110.65;18.90;;;;;;;3.35;100.00;104009.16;5092035;28;20036;-52
2022/01/13 00:46:55;;;;;;;134.10;20.27;;;;;;;3.30;100.00;103979.38;5074062;28;20043;-50
2022/01/13 00:49:21;;;;;;;94.35;17.75;;;;;;;3.33;100.00;103988.22;5091921;28;20036;-51
2022/01/13 00:51:46;;;;;;;100.40;20.05;;;;;;;3.16;100.00;103959.63;5074122;28;20035;-52
2022/01/13 00:54:12;;;;;;;119.72;20.70;;;;;;;3.40;100.00;104010.25;5095428;28;20043;-48
2022/01/13 00:56:37;;;;;;;122.55;21.48;;;;;;;3.41;100.00;104020.72;5095688;28;20101;-52
2022/01/13 00:59:07;;;;;;;128.77;21.30;;;;;;;3.39;100.00;104006.75;5077608;28;20024;-50
2022/01/13 01:01:33;;;;;;;112.68;20.30;;;;;;;3.43;100.00;103999.97;5077841;28;20031;-50
2022/01/13 01:03:59;;;;;;;106.38;20.50;;;;;;;3.42;100.00;104003.41;5095523;28;20032;-51
2022/01/13 01:06:24;;;;;;;151.20;23.08;;;;;;;3.07;100.00;103947.06;5095202;28;20050;-52
2022/01/13 01:08:49;;;;;;;136.38;23.48;;;;;;;2.94;100.00;103931.69;5095571;28;20032;-53
2022/01/13 01:11:15;;;;;;;100.53;20.40;;;;;;;3.47;100.00;104020.16;5095427;28;20043;-49
2022/01/13 01:13:40;;;;;;;142.85;24.58;;;;;;;2.99;100.00;103929.31;5095408;28;20028;-51
2022/01/13 01:16:08;;;;;;;171.35;25.70;;;;;;;3.44;100.00;104022.59;5094945;28;20028;-52
2022/01/13 01:26:35;;;;;;;145.18;22.13;;;;;;;3.28;100.00;103991.44;5077084;28;20036;-55
2022/01/13 01:29:16;;;;;;;169.18;24.13;;;;;;;3.49;100.00;104030.63;5094957;28;20032;-52
2022/01/13 01:31:47;;;;;;;;;;;;;;;3.51;100.00;104021.16;5095670;28;20032;-53
2022/01/13 01:36:38;;;;;;;159.90;22.75;;;;;;;2.91;100.00;103921.16;5094860;28;20028;-50
2022/01/13 01:39:05;;;;;;;179.55;23.25;;;;;;;2.97;100.00;103936.16;5094882;28;20490;-50
2022/01/13 01:41:34;;;;;;;194.45;25.52;;;;;;;3.49;100.00;104023.72;5076869;28;20028;-49
2022/01/13 01:44:11;;;;;;;237.57;27.58;;;;;;;3.21;100.00;103969.44;5094595;28;20524;-48
2022/01/13 01:46:38;;;;;;;203.80;27.42;;;;;;;3.41;100.00;104002.50;5094906;28;20044;-49
2022/01/13 01:49:14;;;;;;;218.15;27.67;;;;;;;3.47;100.00;104020.16;5094691;28;20044;-49
2022/01/13 01:51:40;;;;;;;167.85;26.42;;;;;;;3.53;100.00;104025.66;5078152;28;20036;-49
2022/01/13 01:54:06;;;;;;;179.57;27.65;;;;;;;3.45;100.00;104003.53;5076603;28;20063;-51
2022/01/13 01:56:31;;;;;;;259.50;31.33;;;;;;;3.47;100.00;103994.13;5094249;28;20387;-49
2022/01/13 01:59:01;;;;;;;351.67;34.63;;;;;;;3.23;100.00;103952.19;5076526;28;20055;-50
2022/01/13 02:01:28;;;;;;;211.95;28.83;;;;;;;3.19;100.00;103945.03;5094665;28;20032;-49
2022/01/13 02:03:53;;;;;;;212.95;30.20;;;;;;;3.20;100.00;103938.13;5075379;28;20028;-50
2022/01/13 02:06:19;;;;;;;241.77;31.05;;;;;;;3.61;100.00;104000.84;5094143;28;20486;-52
2022/01/13 02:08:44;;;;;;;181.20;27.75;;;;;;;3.59;100.00;103999.00;5094242;28;20036;-51
2022/01/13 02:11:10;;;;;;;214.05;29.58;;;;;;;3.20;100.00;103918.22;5076497;28;20043;-51
2022/01/13 02:13:36;;;;;;;304.58;33.47;;;;;;;3.69;100.00;104011.59;5076016;28;20119;-52
2022/01/13 02:16:05;;;;;;;250.02;32.22;;;;;;;3.71;100.00;104012.56;5076331;28;20032;-51
2022/01/13 02:18:31;;;;;;;211.85;30.05;;;;;;;3.57;100.00;103979.78;5094226;28;20027;-51
2022/01/13 02:20:57;;;;;;;164.68;28.95;;;;;;;3.72;100.00;104003.94;5059562;28;20526;-48
2022/01/13 02:23:30;;;;;;;168.70;29.05;;;;;;;3.75;100.00;104012.78;5093805;28;20028;-50
2022/01/13 02:25:55;;;;;;;289.70;33.72;;;;;;;3.70;100.00;103984.75;5094045;28;20036;-51
2022/01/13 02:28:20;;;;;;;257.80;32.28;;;;;;;3.74;100.00;103999.66;5075951;28;20046;-51
2022/01/13 02:30:46;;;;;;;313.33;35.47;;;;;;;3.72;100.00;103985.69;5093935;28;20032;-50
2022/01/13 02:33:11;;;;;;;204.48;29.67;;;;;;;3.28;100.00;103901.22;5093639;28;20073;-50
2022/01/13 02:35:36;;;;;;;205.68;30.33;;;;;;;3.77;100.00;103974.66;5093391;28;20051;-51
2022/01/13 02:38:08;;;;;;;270.75;32.55;;;;;;;3.31;100.00;103879.63;5093312;28;20122;-50
2022/01/13 02:40:33;;;;;;;161.80;27.30;;;;;;;3.80;100.00;103953.94;5075567;28;20036;-51
2022/01/13 02:42:59;;;;;;;379.73;36.90;;;;;;;3.39;100.00;103883.47;5075672;28;20372;-50
2022/01/13 02:45:32;;;;;;;200.70;30.15;;;;;;;3.46;100.00;103892.47;5075378;28;20055;-51
2022/01/13 02:48:26;;;;;;;220.95;30.60;;;;;;;3.68;100.00;103929.94;5093316;28;20040;-54
2022/01/13 02:50:53;;;;;;;292.23;32.47;;;;;;;3.86;100.00;103963.75;5093341;28;20032;-50
2022/01/13 02:53:19;;;;;;;239.75;31.38;;;;;;;3.40;100.00;103867.03;5093197;28;20502;-50
2022/01/13 02:55:44;;;;;;;270.70;33.70;;;;;;;3.41;100.00;103882.72;5093256;28;20024;-51
2022/01/13 02:58:13;;;;;;;224.93;31.60;;;;;;;3.43;100.00;103895.81;5075107;28;20395;-50
2022/01/13 03:00:40;;;;;;;214.85;27.88;;;;;;;3.40;100.00;103877.47;5093257;28;20031;-51
2022/01/13 03:03:05;;;;;;;248.13;30.13;;;;;;;3.37;100.00;103877.31;5075017;28;20031;-54
2022/01/13 03:05:33;;;;;;;253.20;31.23;;;;;;;3.87;100.00;103973.38;5093176;28;20387;-53
2022/01/13 03:07:58;;;;;;;196.38;27.75;;;;;;;3.49;100.00;103896.09;5093191;28;20493;-53
2022/01/13 03:10:24;;;;;;;116.78;21.63;;;;;;;3.85;100.00;103964.59;5092955;28;20036;-49
2022/01/13 03:12:49;;;;;;;170.45;26.27;;;;;;;3.85;100.00;103962.84;5092742;28;20116;-51
2022/01/13 03:15:15;;;;;;;165.10;26.38;;;;;;;3.85;100.00;103962.00;5093086;28;20036;-50
2022/01/13 03:17:40;;;;;;;194.30;26.35;;;;;;;3.40;100.00;103869.66;5092828;28;20476;-52
2022/01/13 03:20:06;;;;;;;209.40;28.05;;;;;;;3.82;100.00;103941.00;5092888;28;20036;-52
2022/01/13 03:22:31;;;;;;;269.05;29.25;;;;;;;3.71;100.00;103922.28;5092997;28;20089;-49
2022/01/13 03:24:57;;;;;;;169.98;26.42;;;;;;;3.81;100.00;103945.31;5092902;28;20407;-49
2022/01/13 03:27:23;;;;;;;226.13;28.67;;;;;;;3.40;100.00;103867.03;5092801;28;20061;-50
2022/01/13 03:29:49;;;;;;;242.57;29.55;;;;;;;3.65;100.00;103914.19;5092662;28;20036;-52
2022/01/13 03:32:15;;;;;;;210.30;28.77;;;;;;;3.41;100.00;103876.66;5092287;28;20326;-51
2022/01/13 03:34:41;;;;;;;180.43;26.67;;;;;;;3.74;100.00;103932.84;5092757;28;20028;-50
2022/01/13 03:37:06;;;;;;;233.25;29.38;;;;;;;3.83;100.00;103941.06;5092490;28;20457;-50
2022/01/13 03:39:32;;;;;;;270.30;32.40;;;;;;;3.88;100.00;103947.34;5074664;28;20028;-53
2022/01/13 03:41:58;;;;;;;184.43;28.05;;;;;;;3.89;100.00;103956.06;5092591;28;20208;-50
2022/01/13 03:44:29;;;;;;;260.30;30.27;;;;;;;3.39;100.00;103853.13;5092596;28;20050;-54
2022/01/13 03:47:03;;;;;;;285.73;32.70;;;;;;;3.90;100.00;103939.63;5092617;28;20067;-51
2022/01/13 03:49:29;;;;;;;184.65;29.40;;;;;;;3.49;100.00;103858.75;5092750;28;20036;-48
2022/01/13 03:51:57;;;;;;;217.20;30.55;;;;;;;3.91;100.00;103931.00;5092470;28;20058;-52
2022/01/13 03:54:58;;;;;;;251.00;32.40;;;;;;;3.95;100.00;103935.50;5092674;28;20028;-50
2022/01/13 03:57:53;;;;;;;223.85;30.20;;;;;;;3.96;100.00;103934.69;5092050;28;20030;-53
2022/01/13 04:00:56;;;;;;;189.75;30.35;;;;;;;3.96;100.00;103932.09;5092628;28;20415;-54
2022/01/13 04:03:21;;;;;;;279.83;31.67;;;;;;;3.97;100.00;103941.66;5092257;28;20034;-51
2022/01/13 04:06:08;;;;;;;174.43;27.80;;;;;;;3.91;100.00;103934.47;5092244;28;20036;-54
2022/01/13 04:08:34;;;;;;;210.63;30.75;;;;;;;3.82;100.00;103913.22;5074627;28;20360;-53
2022/01/13 04:11:12;;;;;;;217.88;32.97;;;;;;;3.56;100.00;103872.09;5074076;28;20044;-49
2022/01/13 04:13:55;;;;;;;322.55;35.72;;;;;;;4.00;100.00;103949.63;5092258;28;20036;-50
2022/01/13 04:16:25;;;;;;;192.50;31.85;;;;;;;4.01;100.00;103958.31;5092382;28;20036;-51
2022/01/13 04:18:52;;;;;;;231.02;34.95;;;;;;;3.49;100.00;103858.75;5092252;28;20032;-50
2022/01/13 04:21:17;;;;;;;240.57;34.53;;;;;;;3.51;100.00;103850.19;5092060;28;20563;-50
2022/01/13 04:23:43;;;;;;;218.50;35.65;;;;;;;3.49;100.00;103841.41;5091908;28;20115;-51
2022/01/13 04:26:09;;;;;;;314.67;39.20;;;;;;;3.16;100.00;103778.31;5073958;28;20044;-51
2022/01/13 04:28:36;;;;;;;223.93;36.35;;;;;;;4.02;100.00;103927.13;5095380;28;20103;-50
2022/01/13 04:31:02;;;;;;;282.77;38.33;;;;;;;3.88;100.00;103923.91;5078334;28;20028;-51
2022/01/13 04:33:29;;;;;;;214.43;35.10;;;;;;;3.98;100.00;103933.91;5096145;28;20035;-51
2022/01/13 04:35:54;;;;;;;180.48;33.80;;;;;;;4.03;100.00;103948.88;5096221;28;20071;-51
2022/01/13 04:38:19;;;;;;;249.55;36.70;;;;;;;3.55;100.00;103859.03;5077870;28;20090;-53
2022/01/13 04:40:47;;;;;;;262.45;37.90;;;;;;;3.89;100.00;103911.78;5061064;28;20032;-52
2022/01/13 04:43:13;;;;;;;248.68;37.83;;;;;;;3.92;100.00;103920.63;5078081;28;20051;-49
2022/01/13 04:45:38;;;;;;;229.07;35.53;;;;;;;3.56;100.00;103850.41;5077321;28;20212;-48
2022/01/13 04:48:04;;;;;;;223.75;35.92;;;;;;;3.51;100.00;103838.84;5095795;28;20029;-51
2022/01/13 04:50:29;;;;;;;255.10;38.22;;;;;;;3.60;100.00;103857.50;5095784;28;20042;-53
2022/01/13 04:52:54;;;;;;;314.17;40.85;;;;;;;4.08;100.00;103923.91;5095874;28;20399;-49
2022/01/13 04:55:29;;;;;;;304.20;40.00;;;;;;;3.82;100.00;103868.06;5095714;28;20047;-53
2022/01/13 04:57:55;;;;;;;260.52;40.15;;;;;;;3.59;100.00;103843.56;5095438;28;20127;-50
2022/01/13 05:00:22;;;;;;;260.02;42.63;;;;;;;4.05;100.00;103937.69;5077690;28;20178;-49
2022/01/13 05:02:47;;;;;;;258.10;39.90;;;;;;;4.06;100.00;103933.38;5095670;28;20036;-52
2022/01/13 05:05:13;;;;;;;240.20;40.70;;;;;;;3.64;100.00;103862.03;5095524;28;20038;-50
2022/01/13 05:07:38;;;;;;;196.35;36.28;;;;;;;3.98;100.00;103922.59;5095555;28;20035;-49
2022/01/13 05:10:04;;;;;;;169.15;34.55;;;;;;;3.90;100.00;103908.34;5095225;28;20127;-52
2022/01/13 05:12:36;;;;;;;270.00;40.58;;;;;;;4.10;100.00;103940.50;5095050;28;20038;-50
2022/01/13 05:15:04;;;;;;;280.42;39.65;;;;;;;3.94;100.00;103918.97;5078273;28;20044;-48
2022/01/13 05:20:18;;;;;;;219.43;37.55;;;;;;;3.60;100.00;103866.22;5080114;28;20047;-49
2022/01/13 05:22:44;;;;;;;279.20;40.58;;;;;;;3.70;100.00;103890.97;5060632;28;20031;-50
2022/01/13 05:25:10;;;;;;;216.27;36.90;;;;;;;3.54;100.00;103844.19;5077216;28;20031;-52
2022/01/13 05:27:36;;;;;;;265.92;42.00;;;;;;;3.45;100.00;103829.06;5077144;28;20036;-52
2022/01/13 05:30:06;;;;;;;219.95;37.15;;;;;;;4.05;100.00;103935.09;5060325;28;20839;-52
2022/01/13 05:32:31;;;;;;;230.10;39.80;;;;;;;3.84;100.00;103895.94;5076892;28;20040;-50
2022/01/13 05:34:57;;;;;;;238.27;39.75;;;;;;;4.09;100.00;103938.69;5094870;28;20054;-54
2022/01/13 05:37:22;;;;;;;195.88;35.90;;;;;;;3.66;100.00;103858.66;5094691;28;20115;-54
2022/01/13 05:39:47;;;;;;;283.42;42.15;;;;;;;3.92;100.00;103906.69;5093550;28;20038;-52
2022/01/13 05:42:13;;;;;;;241.13;39.53;;;;;;;3.67;100.00;103872.59;5060366;28;20122;-53
2022/01/13 05:44:38;;;;;;;200.80;37.42;;;;;;;4.08;100.00;103932.63;5094775;28;20032;-52
2022/01/13 05:47:09;;;;;;;195.50;36.22;;;;;;;4.10;100.00;103927.44;5094542;28;20048;-50
2022/01/13 05:49:34;;;;;;;198.70;39.53;;;;;;;3.95;100.00;103910.34;5094562;28;20161;-50
2022/01/13 05:52:00;;;;;;;261.35;42.28;;;;;;;4.16;100.00;103930.31;5094505;28;20313;-50
2022/01/13 05:54:25;;;;;;;237.85;42.40;;;;;;;3.76;100.00;103853.06;5076735;28;20040;-53
2022/01/13 05:56:50;;;;;;;255.70;40.85;;;;;;;3.74;100.00;103857.28;5094555;28;20044;-51
2022/01/13 05:59:16;;;;;;;244.55;40.58;;;;;;;4.18;100.00;103937.38;5094530;28;20031;-50
2022/01/13 06:01:42;;;;;;;233.85;40.80;;;;;;;4.11;100.00;103922.31;5094418;28;20039;-49
2022/01/13 06:04:07;;;;;;;211.02;39.05;;;;;;;4.19;100.00;103951.31;5076233;28;20149;-52
2022/01/13 06:06:32;;;;;;;233.95;41.40;;;;;;;4.19;100.00;103948.72;5076154;28;20475;-50
2022/01/13 06:08:58;;;;;;;275.63;42.22;;;;;;;3.94;100.00;103886.81;5059500;28;20024;-52
2022/01/13 06:11:25;;;;;;;276.17;43.03;;;;;;;4.18;100.00;103931.28;5076076;28;20459;-51
2022/01/13 06:13:51;;;;;;;248.68;42.05;;;;;;;4.26;100.00;103954.25;5093973;28;20039;-53
2022/01/13 06:16:16;;;;;;;249.75;41.28;;;;;;;3.87;100.00;103867.41;5093979;28;20048;-51
2022/01/13 06:18:42;;;;;;;272.88;42.70;;;;;;;3.87;100.00;103870.03;5075942;28;20036;-48
2022/01/13 06:21:08;;;;;;;247.93;40.60;;;;;;;3.60;100.00;103811.50;5093870;28;20446;-50
2022/01/13 06:23:33;;;;;;;306.20;42.95;;;;;;;4.31;100.00;103941.41;5094235;28;20073;-52
2022/01/13 06:25:59;;;;;;;258.30;42.25;;;;;;;4.32;100.00;103931.03;5076026;28;20040;-49
2022/01/13 06:28:24;;;;;;;246.30;41.05;;;;;;;4.24;100.00;103929.81;5092659;28;20036;-53
2022/01/13 06:30:50;;;;;;;271.45;40.30;;;;;;;4.38;100.00;103933.00;5093429;28;20028;-51
2022/01/13 06:33:15;;;;;;;230.02;40.30;;;;;;;4.39;100.00;103938.31;5075308;28;20032;-53
2022/01/13 06:35:41;;;;;;;398.02;46.75;;;;;;;4.34;100.00;103933.72;5093073;28;20088;-50
2022/01/13 06:38:06;;;;;;;247.77;41.08;;;;;;;4.27;100.00;103916.03;5075564;28;20044;-49
2022/01/13 06:40:32;;;;;;;234.68;40.40;;;;;;;3.87;100.00;103837.88;5075678;28;20039;-52
2022/01/13 06:42:57;;;;;;;265.13;39.55;;;;;;;4.38;100.00;103948.66;5093633;28;20075;-52
2022/01/13 06:45:23;;;;;;;268.48;44.00;;;;;;;4.29;100.00;103906.56;5075304;28;20027;-53
2022/01/13 06:47:48;;;;;;;256.13;40.85;;;;;;;4.44;100.00;103942.00;5093122;28;20131;-51
2022/01/13 06:50:16;;;;;;;235.75;42.42;;;;;;;4.46;100.00;103936.84;5092837;28;20035;-51
2022/01/13 06:52:42;;;;;;;256.10;42.60;;;;;;;4.48;100.00;103941.31;5075425;28;20028;-49
2022/01/13 06:55:08;;;;;;;255.45;45.05;;;;;;;3.90;100.00;103838.88;5092592;28;20392;-50
2022/01/13 06:57:34;;;;;;;390.80;52.75;;;;;;;4.18;100.00;103890.44;5074978;28;20032;-50
2022/01/13 07:00:00;;;;;;;224.75;42.88;;;;;;;4.33;100.00;103913.69;5074407;28;20043;-50
2022/01/13 07:02:27;;;;;;;312.50;48.28;;;;;;;4.45;100.00;103929.84;5092768;28;20506;-50
2022/01/13 07:04:53;;;;;;;292.75;46.53;;;;;;;4.49;100.00;103945.66;5075199;28;20034;-51
2022/01/13 07:07:18;;;;;;;275.17;44.08;;;;;;;4.48;100.00;103943.91;5075249;28;20458;-51
2022/01/13 07:09:43;;;;;;;331.52;45.05;;;;;;;4.48;100.00;103953.44;5075030;28;20073;-49
2022/01/13 07:12:09;;;;;;;257.63;41.45;;;;;;;4.01;100.00;103854.97;5093257;28;20387;-50
2022/01/13 07:14:35;;;;;;;220.52;41.00;;;;;;;4.55;100.00;103939.84;5074520;28;20506;-51
2022/01/13 07:17:00;;;;;;;273.08;44.60;;;;;;;4.16;100.00;103863.44;5092675;28;20036;-51
2022/01/13 07:19:26;;;;;;;336.80;46.22;;;;;;;4.53;100.00;103934.53;5092574;28;20047;-50
2022/01/13 07:21:51;;;;;;;293.40;44.55;;;;;;;4.37;100.00;103899.94;5093060;28;20035;-51
2022/01/13 07:24:17;;;;;;;233.57;41.45;;;;;;;4.54;100.00;103931.13;5093095;28;20071;-53
2022/01/13 07:26:42;;;;;;;200.68;38.53;;;;;;;4.55;100.00;103940.72;5092624;28;20046;-50
2022/01/13 07:29:08;;;;;;;248.63;41.90;;;;;;;4.63;100.00;103928.00;5074859;28;20028;-51
2022/01/13 07:31:35;;;;;;;339.17;44.67;;;;;;;4.60;100.00;103932.19;5092679;28;20050;-50
2022/01/13 07:34:00;;;;;;;236.23;39.90;;;;;;;4.60;100.00;103934.81;5092562;28;20652;-49
2022/01/13 07:36:26;;;;;;;254.18;40.97;;;;;;;4.65;100.00;103938.47;5092004;28;20064;-51
2022/01/13 07:38:52;;;;;;;252.00;42.40;;;;;;;4.17;100.00;103859.13;5091200;28;20028;-50
2022/01/13 07:41:17;;;;;;;383.38;50.10;;;;;;;4.21;100.00;103874.03;5074380;28;20031;-50
2022/01/13 07:43:47;;;;;;;295.27;46.00;;;;;;;4.53;100.00;103931.94;5092254;28;20445;-52
2022/01/13 07:46:13;;;;;;;307.02;44.67;;;;;;;4.17;100.00;103870.44;5091753;28;20376;-49
2022/01/13 07:48:38;;;;;;;263.02;41.92;;;;;;;4.63;100.00;103954.09;5073852;28;20043;-50
2022/01/13 07:51:04;;;;;;;217.43;39.60;;;;;;;4.59;100.00;103946.06;5074649;28;20028;-50
2022/01/13 07:53:29;;;;;;;219.40;39.78;;;;;;;4.69;100.00;103964.78;5092335;28;20035;-50
2022/01/13 07:55:54;;;;;;;241.80;42.10;;;;;;;4.54;100.00;103941.56;5092350;28;20028;-49
2022/01/13 07:58:20;;;;;;;228.48;39.70;;;;;;;4.59;100.00;103960.00;5074352;28;20084;-51
2022/01/13 08:00:45;;;;;;;285.40;43.33;;;;;;;4.65;100.00;103962.84;5074268;28;20562;-52
2022/01/13 08:03:11;;;;;;;276.65;42.75;;;;;;;4.58;100.00;103945.19;5091556;28;20032;-50
2022/01/13 08:05:36;;;;;;;288.90;45.25;;;;;;;4.68;100.00;103975.13;5073972;28;20024;-50
2022/01/13 08:08:02;;;;;;;289.10;44.40;;;;;;;4.20;100.00;103885.31;5074173;28;20040;-51
2022/01/13 08:10:27;;;;;;;193.70;38.72;;;;;;;4.22;100.00;103881.06;5092202;28;20040;-50
2022/01/13 08:12:53;;;;;;;369.30;47.78;;;;;;;4.66;100.00;103963.75;5092028;28;20047;-51
2022/01/13 08:15:18;;;;;;;223.07;40.60;;;;;;;4.28;100.00;103891.75;5092104;28;20040;-51
2022/01/13 08:20:31;;;;;;;244.68;42.97;;;;;;;4.71;100.00;103949.16;5092490;28;20039;-50
2022/01/13 08:22:56;;;;;;;277.80;44.53;;;;;;;4.74;100.00;103968.47;5074152;28;20415;-50
2022/01/13 08:25:23;;;;;;;233.40;40.22;;;;;;;4.73;100.00;103963.19;5092145;28;20036;-49
2022/01/13 08:27:48;;;;;;;256.42;42.55;;;;;;;4.79;100.00;103966.03;5092021;28;20475;-50
2022/01/13 08:30:14;;;;;;;180.45;37.42;;;;;;;4.78;100.00;103957.34;5091976;28;20119;-51
2022/01/13 08:32:39;;;;;;;264.42;42.17;;;;;;;4.32;100.00;103880.63;5072173;28;20034;-52
2022/01/13 08:35:06;;;;;;;205.27;39.15;;;;;;;4.44;100.00;103879.38;5073285;28;20032;-50
2022/01/13 08:37:33;;;;;;;216.77;39.80;;;;;;;3.38;100.00;103723.78;5091005;28;20032;-49
2022/01/13 08:40:02;;;;;;;315.73;44.08;;;;;;;4.44;100.00;103891.53;5091058;28;20122;-49
2022/01/13 08:42:28;;;;;;;285.50;42.83;;;;;;;4.50;100.00;103903.13;5091724;28;20099;-52
2022/01/13 08:44:53;;;;;;;236.27;38.85;;;;;;;4.91;100.00;103972.66;5090854;28;20490;-50
2022/01/13 08:47:19;;;;;;;198.98;39.80;;;;;;;4.45;100.00;103894.22;5091377;28;20052;-51
2022/01/13 08:49:45;;;;;;;222.82;38.38;;;;;;;4.97;100.00;103972.00;5091100;28;20399;-51
2022/01/13 08:52:10;;;;;;;245.43;40.75;;;;;;;4.38;100.00;103866.09;5091093;28;20032;-51
2022/01/13 08:54:35;;;;;;;212.85;37.67;;;;;;;5.01;100.00;103969.59;5072933;28;20167;-50
2022/01/13 08:57:02;;;;;;;232.27;37.50;;;;;;;5.03;100.00;103969.63;5072825;28;20044;-52
2022/01/13 08:59:28;;;;;;;145.38;32.78;;;;;;;5.09;100.00;103977.72;5072795;28;20039;-52
2022/01/13 09:01:53;;;;;;;214.57;37.25;;;;;;;4.92;100.00;103961.38;5073186;28;20047;-50
2022/01/13 09:04:19;;;;;;;237.07;38.65;;;;;;;5.08;100.00;103992.47;5089784;28;20055;-52
2022/01/13 09:06:44;;;;;;;193.18;37.40;;;;;;;4.67;100.00;103900.31;5073001;28;20043;-51
2022/01/13 09:09:10;;;;;;;303.33;42.05;;;;;;;4.79;100.00;103916.44;5090913;28;20390;-51
2022/01/13 09:11:35;;;;;;;176.45;34.58;;;;;;;5.20;100.00;103981.63;5072532;28;20028;-50
2022/01/13 09:14:00;;;;;;;250.60;40.45;;;;;;;4.90;100.00;103923.00;5092892;28;20180;-53
2022/01/13 09:16:40;;;;;;;213.35;36.08;;;;;;;5.27;100.00;103996.72;5094651;28;20039;-50
2022/01/13 09:19:08;;;;;;;224.45;36.40;;;;;;;5.34;100.00;103982.19;5094559;28;20038;-50
2022/01/13 09:21:37;;;;;;;260.52;39.42;;;;;;;4.79;100.00;103883.41;5094455;28;20032;-53
2022/01/13 09:24:02;;;;;;;221.88;38.42;;;;;;;4.86;100.00;103893.28;5076643;28;20143;-51
2022/01/13 09:26:27;;;;;;;208.70;39.22;;;;;;;5.06;100.00;103920.16;5094280;28;20111;-53
2022/01/13 09:28:53;;;;;;;213.75;38.05;;;;;;;5.42;100.00;103993.81;5094489;28;20475;-52
2022/01/13 09:31:18;;;;;;;180.43;36.33;;;;;;;5.43;100.00;103972.97;5076653;28;20077;-54
2022/01/13 09:33:44;;;;;;;152.82;32.83;;;;;;;5.51;100.00;103979.41;5094390;28;20040;-52
2022/01/13 09:36:10;;;;;;;195.63;37.67;;;;;;;5.56;100.00;103971.72;5076201;28;20036;-53
2022/01/13 09:38:36;;;;;;;166.05;36.20;;;;;;;5.07;100.00;103880.16;5094259;28;20074;-53
2022/01/13 09:41:02;;;;;;;177.85;37.05;;;;;;;5.55;100.00;103963.00;5075559;28;20051;-48
2022/01/13 09:43:29;;;;;;;197.82;38.30;;;;;;;5.21;100.00;103892.03;5094251;28;20058;-51
2022/01/13 09:45:57;;;;;;;150.73;36.13;;;;;;;5.69;100.00;103961.78;5093778;28;20056;-49
2022/01/13 09:48:22;;;;;;;186.82;37.35;;;;;;;5.75;100.00;103968.09;5093897;28;20090;-50
2022/01/13 09:50:48;;;;;;;212.35;40.08;;;;;;;5.74;100.00;103975.03;5093786;28;20056;-48
2022/01/13 09:53:15;;;;;;;188.23;39.50;;;;;;;5.55;100.00;103938.56;5093811;28;20028;-51
2022/01/13 09:55:41;;;;;;;153.88;36.38;;;;;;;5.82;100.00;103988.38;5093444;28;20036;-48
2022/01/13 09:58:10;;;;;;;180.25;38.70;;;;;;;5.84;100.00;103984.13;5093630;28;20040;-50
2022/01/13 10:00:40;;;;;;;155.82;38.55;;;;;;;5.49;100.00;103915.72;5094029;28;20081;-52
2022/01/13 10:03:12;;;;;;;203.70;41.08;;;;;;;5.92;100.00;103978.38;5075698;28;20387;-53
2022/01/13 10:05:50;;;;;;;198.43;41.83;;;;;;;5.54;100.00;103902.84;5093347;28;20036;-50
2022/01/13 10:08:15;;;;;;;154.40;37.67;;;;;;;5.48;100.00;103908.75;5093242;28;20119;-53
2022/01/13 10:10:40;;;;;;;156.52;37.85;;;;;;;5.88;100.00;103976.47;5093593;28;20477;-53
2022/01/13 10:13:10;;;;;;;173.80;38.88;;;;;;;5.92;100.00;103967.91;5093504;28;20110;-52
2022/01/13 10:18:41;;;;;;;147.88;38.00;;;;;;;5.99;100.00;103977.75;5093216;28;20096;-49
2022/01/13 10:21:08;;;;;;;128.10;37.47;;;;;;;6.03;100.00;103961.34;5093128;28;20028;-51
2022/01/13 10:23:34;;;;;;;145.27;38.63;;;;;;;5.91;100.00;103941.69;5075334;28;20028;-51
2022/01/13 10:26:14;;;;;;;160.40;41.28;;;;;;;6.03;100.00;103969.19;5092589;28;20094;-49
2022/01/13 10:28:40;;;;;;;152.90;41.33;;;;;;;6.02;100.00;103956.94;5075666;28;20035;-51
2022/01/13 10:31:05;;;;;;;133.40;38.92;;;;;;;6.08;100.00;103977.19;5092588;28;20032;-50
2022/01/13 10:33:31;;;;;;;138.23;39.75;;;;;;;6.12;100.00;103973.84;5093013;28;20040;-53
2022/01/13 10:36:10;;;;;;;157.02;41.30;;;;;;;5.72;100.00;103900.03;5093147;28;20032;-49
2022/01/13 10:38:53;;;;;;;133.57;38.72;;;;;;;5.72;100.00;103886.97;5093073;28;20569;-51
2022/01/13 10:41:37;;;;;;;130.23;39.25;;;;;;;5.62;100.00;103880.50;5092447;28;20109;-53
2022/01/13 10:44:16;;;;;;;119.45;38.13;;;;;;;6.18;100.00;103964.50;5092528;28;20126;-54
2022/01/13 10:47:01;;;;;;;130.32;38.88;;;;;;;6.24;100.00;103969.06;5091697;28;20525;-50
2022/01/13 10:49:38;;;;;;;114.22;38.55;;;;;;;6.04;100.00;103917.78;5092012;28;20036;-50
2022/01/13 10:52:27;;;;;;;148.63;41.92;;;;;;;6.29;100.00;103957.00;5091854;28;20047;-50
2022/01/13 10:55:14;;;;;;;122.95;39.72;;;;;;;6.31;100.00;103954.44;5091889;28;20063;-54
2022/01/13 10:57:42;;;;;;;109.45;37.72;;;;;;;6.37;100.00;103952.94;5091486;28;20036;-52
2022/01/13 11:00:30;;;;;;;142.68;43.28;;;;;;;6.39;100.00;103958.22;5092112;28;20471;-50
2022/01/13 11:03:04;;;;;;;125.45;39.92;;;;;;;6.40;100.00;103967.84;5073810;28;20451;-54
2022/01/13 11:05:31;;;;;;;128.80;40.35;;;;;;;6.44;100.00;103952.31;5073257;28;20428;-52
2022/01/13 11:07:57;;;;;;;125.45;39.47;;;;;;;6.31;100.00;103926.56;5073379;28;20051;-50
2022/01/13 11:10:23;;;;;;;122.53;40.53;;;;;;;6.35;100.00;103920.59;5091662;28;20043;-49
2022/01/13 11:12:57;;;;;;;113.10;37.65;;;;;;;6.01;100.00;103858.38;5091499;28;20024;-53
2022/01/13 11:15:24;;;;;;;109.68;41.35;;;;;;;6.52;100.00;103955.19;5091576;28;20056;-49
2022/01/13 11:17:50;;;;;;;100.88;37.65;;;;;;;6.03;100.00;103861.06;5099297;28;20032;-51
2022/01/13 11:20:17;;;;;;;102.85;37.75;;;;;;;6.00;100.00;103855.75;5082494;28;20036;-51
2022/01/13 11:22:45;;;;;;;112.82;38.00;;;;;;;6.10;100.00;103879.63;5086777;28;20032;-51
2022/01/13 11:25:12;;;;;;;101.53;37.60;;;;;;;6.25;100.00;103909.78;5108070;28;20122;-54
2022/01/13 11:27:39;;;;;;;98.80;37.92;;;;;;;6.32;100.00;103949.28;5106243;28;20443;-54